createdAt,value
2023-01-27T00:01:18.868Z,6.50
2023-01-27T00:06:22.253Z,7.60
2023-01-27T00:11:44.616Z,6.53
2023-01-27T00:16:47.980Z,6.53
2023-01-27T00:22:08.625Z,7.40
2023-01-27T00:27:13.736Z,6.83
2023-01-27T00:32:34.645Z,6.70
2023-01-27T00:37:38.023Z,6.37
2023-01-27T00:42:42.918Z,7.50
2023-01-27T00:47:46.413Z,6.77
2023-01-27T00:52:49.889Z,6.10
2023-01-27T00:57:54.750Z,7.43
2023-01-27T01:02:58.299Z,6.83
2023-01-27T01:08:01.795Z,7.03
2023-01-27T01:13:08.072Z,6.97
2023-01-27T01:18:13.111Z,7.83
2023-01-27T01:23:18.125Z,7.73
2023-01-27T01:28:23.570Z,7.20
2023-01-27T01:33:27.082Z,7.00
2023-01-27T01:38:30.477Z,7.50
2023-01-27T01:43:35.614Z,7.27
2023-01-27T01:48:43.234Z,6.87
2023-01-27T01:53:52.837Z,7.30
2023-01-27T01:58:59.839Z,6.63
2023-01-27T02:04:07.983Z,6.43
2023-01-27T02:09:12.184Z,7.23
2023-01-27T02:14:18.699Z,6.90
2023-01-27T02:19:27.518Z,6.50
2023-01-27T02:24:42.064Z,6.70
2023-01-27T02:29:46.837Z,6.90
2023-01-27T02:34:50.258Z,6.77
2023-01-27T02:39:55.770Z,6.87
2023-01-27T02:45:00.798Z,7.20
2023-01-27T02:50:04.192Z,6.80
2023-01-27T02:55:08.756Z,7.00
2023-01-27T03:00:14.660Z,6.87
2023-01-27T03:05:18.765Z,7.20
2023-01-27T03:10:22.230Z,7.20
2023-01-27T03:15:44.259Z,7.27
2023-01-27T03:20:49.282Z,7.20
2023-01-27T03:25:52.762Z,7.17
2023-01-27T03:31:02.459Z,6.90
2023-01-27T03:36:24.129Z,6.63
2023-01-27T03:41:44.833Z,6.70
2023-01-27T03:46:49.610Z,7.23
2023-01-27T03:51:52.992Z,6.60
2023-01-27T03:56:56.339Z,6.77
2023-01-27T04:02:20.313Z,6.97
2023-01-27T04:07:23.997Z,6.87
2023-01-27T04:12:27.478Z,6.27
2023-01-27T04:17:38.985Z,6.87
2023-01-27T04:22:42.519Z,6.50
2023-01-27T04:27:45.905Z,6.77
2023-01-27T04:32:50.759Z,6.50
2023-01-27T04:37:54.246Z,6.63
2023-01-27T04:42:58.214Z,6.23
2023-01-27T04:48:03.040Z,6.73
2023-01-27T04:53:06.481Z,6.73
2023-01-27T04:58:09.979Z,6.73
2023-01-27T05:03:14.886Z,6.33
2023-01-27T05:08:18.340Z,6.37
2023-01-27T05:13:21.735Z,6.30
2023-01-27T05:18:26.568Z,6.87
2023-01-27T05:23:36.770Z,6.27
2023-01-27T05:28:42.267Z,6.47
2023-01-27T05:33:48.013Z,6.23
2023-01-27T05:38:51.555Z,5.83
2023-01-27T05:43:56.647Z,6.60
2023-01-27T05:49:04.350Z,6.80
2023-01-27T05:54:08.357Z,7.00
2023-01-27T05:59:12.695Z,6.10
2023-01-27T06:04:17.461Z,6.50
2023-01-27T06:09:20.856Z,6.17
2023-01-27T06:14:24.311Z,7.00
2023-01-27T06:19:29.132Z,7.00
2023-01-27T06:24:32.535Z,6.87
2023-01-27T06:29:35.970Z,6.40
2023-01-27T06:34:41.103Z,7.77
2023-01-27T06:39:44.498Z,6.33
2023-01-27T06:44:47.887Z,6.93
2023-01-27T06:49:52.649Z,6.50
2023-01-27T06:54:56.037Z,5.97
2023-01-27T06:59:59.537Z,5.47
2023-01-27T07:05:04.943Z,6.40
2023-01-27T07:10:09.807Z,6.80
2023-01-27T07:15:13.779Z,6.20
2023-01-27T07:20:18.595Z,6.50
2023-01-27T07:25:21.976Z,6.67
2023-01-27T07:30:25.459Z,6.27
2023-01-27T07:35:30.236Z,7.00
2023-01-27T07:40:33.623Z,6.20
2023-01-27T07:45:37.104Z,6.60
2023-01-27T07:50:42.895Z,6.83
2023-01-27T07:55:46.270Z,6.37
2023-01-27T08:00:49.627Z,6.63
2023-01-27T08:05:54.525Z,6.27
2023-01-27T08:11:01.322Z,6.03
2023-01-27T08:16:06.693Z,6.83
2023-01-27T08:21:13.033Z,6.10
2023-01-27T08:26:16.409Z,6.50
2023-01-27T08:31:19.898Z,5.60
2023-01-27T08:36:25.537Z,6.43
2023-01-27T08:41:29.117Z,5.53
2023-01-27T08:46:32.532Z,5.50
2023-01-27T08:51:37.350Z,6.93
2023-01-27T08:56:40.686Z,5.13
2023-01-27T09:01:44.135Z,6.17
2023-01-27T09:06:50.524Z,5.70
2023-01-27T09:11:53.998Z,5.43
2023-01-27T09:16:57.341Z,5.37
2023-01-27T09:22:02.187Z,5.70
2023-01-27T09:27:05.689Z,5.90
2023-01-27T09:32:12.777Z,5.40
2023-01-27T09:37:17.777Z,5.20
2023-01-27T09:42:37.970Z,5.17
2023-01-27T09:47:58.524Z,5.13
2023-01-27T09:53:18.232Z,5.20
2023-01-27T09:58:33.701Z,5.50
2023-01-27T10:04:11.855Z,5.30
2023-01-27T10:09:41.104Z,5.50
2023-01-27T10:14:54.518Z,5.10
2023-01-27T10:20:21.099Z,5.10
2023-01-27T10:25:36.063Z,5.30
2023-01-27T10:30:41.500Z,5.27
2023-01-27T10:35:52.531Z,5.47
2023-01-27T10:41:04.431Z,6.47
2023-01-27T10:46:17.337Z,5.33
2023-01-27T10:51:26.633Z,5.80
2023-01-27T10:56:37.387Z,5.43
2023-01-27T11:01:46.244Z,5.30
2023-01-27T11:06:51.361Z,4.90
2023-01-27T11:11:59.355Z,4.37
2023-01-27T11:17:17.139Z,4.07
2023-01-27T11:22:23.971Z,3.93
2023-01-27T11:27:42.918Z,4.03
2023-01-27T11:32:54.093Z,3.60
2023-01-27T11:38:09.811Z,3.33
2023-01-27T11:43:17.660Z,2.83
2023-01-27T11:48:23.468Z,3.37
2023-01-27T11:53:32.333Z,3.57
2023-01-27T11:58:44.590Z,3.20
2023-01-27T12:03:55.804Z,2.80
2023-01-27T12:08:59.162Z,2.87
2023-01-27T12:14:05.624Z,3.20
2023-01-27T12:19:22.713Z,2.77
2023-01-27T12:24:33.962Z,3.20
2023-01-27T12:29:44.100Z,3.00
2023-01-27T12:34:50.943Z,3.20
2023-01-27T12:40:00.489Z,2.80
2023-01-27T12:45:26.960Z,3.43
2023-01-27T12:50:32.919Z,3.00
2023-01-27T12:55:39.776Z,3.30
2023-01-27T13:00:47.640Z,2.63
2023-01-27T13:05:55.616Z,2.30
2023-01-27T13:11:01.677Z,3.30
2023-01-27T13:16:17.488Z,3.47
2023-01-27T13:21:25.365Z,3.43
2023-01-27T13:26:31.933Z,4.47
2023-01-27T13:31:43.639Z,3.13
2023-01-27T13:36:52.757Z,3.53
2023-01-27T13:42:10.139Z,4.47
2023-01-27T13:47:19.801Z,4.73
2023-01-27T13:52:23.174Z,4.43
2023-01-27T13:57:50.578Z,4.30
2023-01-27T14:03:15.455Z,4.30
2023-01-27T14:08:39.847Z,4.50
2023-01-27T14:13:57.580Z,3.70
2023-01-27T14:19:11.310Z,4.20
2023-01-27T14:24:26.006Z,4.20
2023-01-27T14:29:36.295Z,4.50
2023-01-27T14:34:56.730Z,4.40
2023-01-27T14:40:14.712Z,4.50
2023-01-27T14:45:24.901Z,5.07
2023-01-27T14:50:37.554Z,4.73
2023-01-27T14:55:48.163Z,4.40
2023-01-27T15:01:03.577Z,4.53
2023-01-27T15:06:16.351Z,4.97
2023-01-27T15:11:44.124Z,4.30
2023-01-27T15:16:56.857Z,4.90
2023-01-27T15:22:37.559Z,4.27
2023-01-27T15:27:41.494Z,4.43
2023-01-27T15:32:44.875Z,4.43
2023-01-27T15:38:02.081Z,4.73
2023-01-27T15:43:06.315Z,5.97
2023-01-27T15:48:14.987Z,4.17
2023-01-27T15:53:30.349Z,3.30
2023-01-27T15:58:35.898Z,3.70
2023-01-27T16:03:45.048Z,3.73
2023-01-27T16:08:52.336Z,3.80
2023-01-27T16:14:42.582Z,3.50
2023-01-27T16:19:50.336Z,4.70
2023-01-27T16:24:57.085Z,5.37
2023-01-27T16:30:14.446Z,5.50
2023-01-27T16:35:21.404Z,3.87
2023-01-27T16:40:26.259Z,4.53
2023-01-27T16:45:41.527Z,4.70
2023-01-27T16:50:45.822Z,8.10
2023-01-27T16:56:00.069Z,4.93
2023-01-27T17:01:05.694Z,4.90
2023-01-27T17:06:16.281Z,4.87
2023-01-27T17:11:25.695Z,5.03
2023-01-27T17:16:34.882Z,4.67
2023-01-27T17:21:41.622Z,5.17
2023-01-27T17:26:49.430Z,4.87
2023-01-27T17:31:55.080Z,5.37
2023-01-27T17:37:19.399Z,5.70
2023-01-27T17:42:25.631Z,4.83
2023-01-27T17:47:31.781Z,5.00
2023-01-27T17:52:36.287Z,4.73
2023-01-27T17:57:40.532Z,4.97
2023-01-27T18:02:53.846Z,5.03
2023-01-27T18:07:57.340Z,4.80
2023-01-27T18:13:14.547Z,4.73
2023-01-27T18:18:25.572Z,4.57
2023-01-27T18:23:32.376Z,4.90
2023-01-27T18:28:39.397Z,4.50
2023-01-27T18:33:46.904Z,3.90
2023-01-27T18:38:50.976Z,4.50
2023-01-27T18:43:55.768Z,4.40
2023-01-27T18:49:03.275Z,4.30
2023-01-27T18:54:10.593Z,5.00
2023-01-27T18:59:14.851Z,4.37
2023-01-27T19:04:24.179Z,4.37
2023-01-27T19:09:28.623Z,5.27
2023-01-27T19:14:34.980Z,6.00
2023-01-27T19:19:40.798Z,5.73
2023-01-27T19:24:46.137Z,5.67
2023-01-27T19:29:51.737Z,6.07
2023-01-27T19:34:58.376Z,6.20
2023-01-27T19:40:03.603Z,5.40
2023-01-27T19:45:08.245Z,5.20
2023-01-27T19:50:20.895Z,6.07
2023-01-27T19:55:25.902Z,5.73
2023-01-27T20:00:32.568Z,5.77
2023-01-27T20:05:39.434Z,5.53
2023-01-27T20:10:43.858Z,5.90
2023-01-27T20:15:49.663Z,5.90
2023-01-27T20:20:59.739Z,5.60
2023-01-27T20:26:09.654Z,5.73
2023-01-27T20:31:15.180Z,5.83
2023-01-27T20:36:22.578Z,6.03
2023-01-27T20:41:28.416Z,5.77
2023-01-27T20:46:35.995Z,6.27
2023-01-27T20:51:42.489Z,5.70
2023-01-27T20:56:46.692Z,5.77
2023-01-27T21:01:51.230Z,6.00
2023-01-27T21:06:57.051Z,6.50
2023-01-27T21:12:01.129Z,6.43
2023-01-27T21:17:04.910Z,6.43
2023-01-27T21:22:10.614Z,6.17
2023-01-27T21:27:14.563Z,6.37
2023-01-27T21:32:18.470Z,6.63
2023-01-27T21:37:23.671Z,7.57
2023-01-27T21:42:44.837Z,7.40
2023-01-27T21:47:48.379Z,7.10
2023-01-27T21:52:54.235Z,7.40
2023-01-27T21:57:58.389Z,7.73
2023-01-27T22:03:03.384Z,7.20
2023-01-27T22:08:08.344Z,7.50
2023-01-27T22:13:11.660Z,7.33
2023-01-27T22:18:15.041Z,7.50
2023-01-27T22:23:20.632Z,7.27
2023-01-27T22:28:24.500Z,7.87
2023-01-27T22:33:28.115Z,8.07
2023-01-27T22:38:32.990Z,7.23
2023-01-27T22:43:36.301Z,7.80
2023-01-27T22:48:39.644Z,7.53
2023-01-27T22:53:44.533Z,7.73
2023-01-27T22:58:47.850Z,6.90
2023-01-27T23:03:51.239Z,6.90
2023-01-27T23:08:56.024Z,7.17
2023-01-27T23:13:59.375Z,6.93
2023-01-27T23:19:03.087Z,7.00
2023-01-27T23:24:08.006Z,6.33
2023-01-27T23:29:24.345Z,6.40
2023-01-27T23:34:28.596Z,6.10
2023-01-27T23:39:33.663Z,6.83
2023-01-27T23:44:37.002Z,6.83
2023-01-27T23:49:40.470Z,6.50
2023-01-27T23:54:45.282Z,6.70
2023-01-27T23:59:48.673Z,7.10
